This is the latest recevied weather packets stored in our database for station/object LKMT. If no packets are shown the sender has not sent any weather packets the latest 1 day(s).
| Time | Temp. | Humidity | Pressure | Rain* | Wind** | Luminosity | Snow |
|---|---|---|---|---|---|---|---|
| 1836273917 | 12.78° C | 100% | 1025 hPa | - | 3.13 m/s, 220° | - | - |
| 1778009551 | 20° C | 40% | 1006 hPa | - | 2.68 m/s, 180° | - | - |
| 1778008949 | 21.11° C | 37% | - | - | 3.13 m/s, 190° | - | - |
| 1778007767 | 20° C | 42% | 1006 hPa | - | 2.68 m/s, 180° | - | - |
| 1778005951 | 22.22° C | 37% | 1006 hPa | - | 4.47 m/s, 180° | - | - |
| 1778005332 | 22.78° C | 33% | - | - | 7.15 m/s, 190° | - | - |
| 1778004153 | 22.78° C | 33% | 1006 hPa | - | 6.26 m/s, 180° | - | - |
| 1778002358 | 23.89° C | 31% | 1006 hPa | - | 7.15 m/s, 180° | - | - |
| 1778001748 | 23.89° C | 31% | - | - | 5.36 m/s, 190° | - | - |
| 1778000553 | 23.89° C | 33% | 1006 hPa | - | 5.36 m/s, 190° | - | - |
| 1777998765 | 23.89° C | 33% | 1006 hPa | - | 7.15 m/s, 190° | - | - |
| 1777998223 | 25° C | 25% | - | - | 7.15 m/s, 200° | - | - |
| 1777996955 | 25° C | 25% | 1006 hPa | - | 6.26 m/s, 200° | - | - |
| 1777995158 | 26.11° C | 15% | 1006 hPa | - | 8.05 m/s, 190° | - | - |
| 1777994531 | 26.11° C | 15% | - | - | 8.05 m/s, 200° | - | - |
| 1777993360 | 26.11° C | 16% | 1006 hPa | - | 7.6 m/s, 190° | - | - |
| 1777991558 | 25° C | 20% | 1007 hPa | - | 10.28 m/s, 210° | - | - |
| 1777990931 | 27.22° C | 15% | - | - | 9.83 m/s, 210° | - | - |
| 1777989964 | 27.22° C | 15% | 1007 hPa | - | 10.73 m/s, 210° | - | - |
| 1777989760 | 26.11° C | 18% | 1007 hPa | - | 9.39 m/s, 210° | - | - |
| 1777987951 | 25° C | 20% | 1007 hPa | - | 8.05 m/s, 190° | - | - |
| 1777987318 | 26.11° C | 16% | - | - | 9.83 m/s, 210° | - | - |
| 1777986154 | 26.11° C | 19% | 1007 hPa | - | 9.83 m/s, 200° | - | - |
| 1777984352 | 25° C | 19% | 1007 hPa | - | 9.39 m/s, 210° | - | - |
| 1777983718 | 25° C | 19% | - | - | 10.73 m/s, 210° | - | - |
* Rain since midnight (hover to see other rain measurements)
** Current wind speed in m/s (hover to see current wind gust speed)